createdAt,value
2018-01-06T00:00:34.272Z,21.53
2018-01-06T00:03:02.148Z,35.67
2018-01-06T00:05:30.024Z,26.67
2018-01-06T00:07:57.885Z,27.80
2018-01-06T00:10:25.778Z,24.47
2018-01-06T00:12:53.688Z,33.20
2018-01-06T00:15:21.544Z,22.87
2018-01-06T00:17:49.691Z,25.03
2018-01-06T00:20:17.551Z,21.30
2018-01-06T00:22:45.375Z,22.57
2018-01-06T00:25:13.263Z,24.03
2018-01-06T00:27:41.135Z,20.47
2018-01-06T00:30:09.080Z,20.13
2018-01-06T00:32:37.064Z,19.77
2018-01-06T00:35:04.904Z,19.10
2018-01-06T00:37:32.764Z,24.67
2018-01-06T00:40:00.646Z,24.93
2018-01-06T00:42:28.519Z,16.53
2018-01-06T00:44:56.412Z,16.73
2018-01-06T00:47:24.996Z,15.27
2018-01-06T00:49:52.973Z,14.10
2018-01-06T00:52:20.903Z,15.37
2018-01-06T00:54:48.816Z,14.40
2018-01-06T00:57:16.669Z,16.83
2018-01-06T00:59:45.112Z,12.80
2018-01-06T01:02:13.288Z,17.73
2018-01-06T01:04:41.516Z,12.57
2018-01-06T01:07:09.462Z,15.80
2018-01-06T01:09:37.689Z,13.90
2018-01-06T01:12:05.677Z,16.57
2018-01-06T01:14:33.675Z,19.13
2018-01-06T01:17:01.584Z,12.47
2018-01-06T01:19:29.438Z,12.50
2018-01-06T01:21:57.278Z,18.97
2018-01-06T01:24:25.168Z,13.80
2018-01-06T01:26:53.044Z,16.43
2018-01-06T01:29:20.883Z,13.37
2018-01-06T01:31:48.956Z,18.90
2018-01-06T01:34:16.812Z,11.30
2018-01-06T01:36:44.647Z,14.77
2018-01-06T01:39:12.564Z,13.33
2018-01-06T01:41:40.492Z,12.63
2018-01-06T01:44:08.417Z,11.13
2018-01-06T01:46:36.305Z,10.07
2018-01-06T01:49:04.159Z,14.33
2018-01-06T01:51:32.182Z,13.10
2018-01-06T01:54:00.032Z,10.80
2018-01-06T01:56:27.884Z,12.63
2018-01-06T01:58:55.815Z,13.27
2018-01-06T02:01:23.795Z,14.20
2018-01-06T02:03:51.679Z,12.63
2018-01-06T02:06:19.515Z,9.90
2018-01-06T02:08:47.408Z,14.17
2018-01-06T02:11:15.380Z,9.00
2018-01-06T02:13:43.256Z,9.57
2018-01-06T02:16:11.216Z,10.47
2018-01-06T02:18:39.140Z,9.40
2018-01-06T02:21:06.993Z,9.53
2018-01-06T02:23:34.834Z,9.20
2018-01-06T02:26:02.737Z,11.20
2018-01-06T02:28:30.596Z,12.70
2018-01-06T02:30:58.500Z,11.63
2018-01-06T02:33:26.463Z,10.10
2018-01-06T02:35:54.340Z,14.83
2018-01-06T02:38:22.232Z,11.93
2018-01-06T02:40:50.129Z,9.87
2018-01-06T02:43:18.000Z,9.53
2018-01-06T02:45:45.899Z,14.27
2018-01-06T02:48:13.903Z,9.90
2018-01-06T02:50:41.784Z,9.50
2018-01-06T02:53:09.627Z,15.73
2018-01-06T02:55:37.616Z,16.53
2018-01-06T02:58:05.494Z,9.40
2018-01-06T03:00:33.403Z,16.13
2018-01-06T03:03:01.295Z,12.73
2018-01-06T03:05:29.160Z,13.47
2018-01-06T03:07:57.021Z,12.23
2018-01-06T03:10:24.908Z,12.03
2018-01-06T03:12:52.763Z,9.60
2018-01-06T03:15:21.491Z,9.60
2018-01-06T03:17:49.412Z,14.53
2018-01-06T03:20:18.300Z,14.53
2018-01-06T03:22:46.207Z,6.67
2018-01-06T03:25:14.089Z,11.40
2018-01-06T03:27:41.999Z,8.93
2018-01-06T03:30:09.909Z,8.03
2018-01-06T03:32:37.820Z,12.73
2018-01-06T03:35:06.011Z,12.93
2018-01-06T03:37:33.860Z,11.00
2018-01-06T03:40:01.883Z,12.70
2018-01-06T03:42:29.767Z,12.13
2018-01-06T03:44:57.612Z,10.87
2018-01-06T03:47:25.530Z,14.57
2018-01-06T03:49:53.368Z,15.37
2018-01-06T03:52:21.293Z,12.27
2018-01-06T03:54:49.388Z,7.43
2018-01-06T03:57:17.236Z,12.33
2018-01-06T03:59:45.123Z,10.33
2018-01-06T04:02:13.044Z,14.90
2018-01-06T04:04:40.935Z,12.13
2018-01-06T04:07:12.845Z,14.37
2018-01-06T04:09:40.747Z,13.10
2018-01-06T04:12:08.626Z,10.27
2018-01-06T04:14:36.528Z,11.33
2018-01-06T04:17:04.388Z,13.67
2018-01-06T04:19:32.234Z,22.60
2018-01-06T04:22:00.124Z,13.77
2018-01-06T04:24:27.997Z,10.00
2018-01-06T04:26:55.862Z,10.97
2018-01-06T04:29:23.754Z,10.77
2018-01-06T04:31:51.622Z,9.50
2018-01-06T04:34:19.488Z,13.27
2018-01-06T04:36:47.435Z,9.13
2018-01-06T04:39:15.300Z,9.30
2018-01-06T04:41:43.200Z,7.87
2018-01-06T04:44:11.087Z,11.10
2018-01-06T04:46:38.929Z,5.90
2018-01-06T04:49:06.787Z,11.70
2018-01-06T04:51:34.724Z,7.77
2018-01-06T04:54:02.590Z,9.37
2018-01-06T04:56:30.451Z,15.47
2018-01-06T04:58:58.339Z,12.53
2018-01-06T05:01:26.179Z,11.10
2018-01-06T05:03:54.039Z,14.63
2018-01-06T05:06:21.952Z,12.47
2018-01-06T05:08:49.829Z,8.03
2018-01-06T05:11:17.671Z,9.53
2018-01-06T05:13:45.544Z,16.23
2018-01-06T05:16:13.460Z,7.17
2018-01-06T05:18:41.294Z,12.50
2018-01-06T05:21:09.218Z,9.87
2018-01-06T05:23:37.921Z,7.23
2018-01-06T05:26:05.768Z,11.30
2018-01-06T05:28:33.628Z,7.53
2018-01-06T05:31:01.538Z,8.90
2018-01-06T05:33:29.428Z,9.80
2018-01-06T05:35:57.359Z,14.77
2018-01-06T05:38:25.231Z,9.83
2018-01-06T05:40:53.155Z,12.87
2018-01-06T05:43:21.023Z,12.90
2018-01-06T05:45:48.865Z,11.23
2018-01-06T05:48:16.715Z,14.40
2018-01-06T05:50:44.599Z,7.43
2018-01-06T05:53:12.447Z,14.40
2018-01-06T05:55:40.295Z,12.90
2018-01-06T05:58:08.180Z,13.50
2018-01-06T06:00:36.061Z,9.90
2018-01-06T06:03:03.912Z,14.37
2018-01-06T06:05:31.792Z,21.13
2018-01-06T06:07:59.679Z,17.43
2018-01-06T06:10:27.623Z,15.00
2018-01-06T06:12:55.506Z,12.73
2018-01-06T06:15:23.391Z,12.50
2018-01-06T06:17:51.260Z,9.83
2018-01-06T06:20:19.163Z,9.47
2018-01-06T06:22:47.017Z,12.47
2018-01-06T06:25:14.903Z,15.83
2018-01-06T06:27:42.767Z,13.60
2018-01-06T06:30:10.659Z,16.20
2018-01-06T06:32:38.515Z,9.60
2018-01-06T06:35:06.455Z,18.03
2018-01-06T06:37:34.325Z,12.90
2018-01-06T06:40:02.184Z,9.93
2018-01-06T06:42:30.784Z,9.83
2018-01-06T06:44:58.654Z,12.00
2018-01-06T06:47:26.548Z,15.03
2018-01-06T06:49:54.586Z,9.10
2018-01-06T06:52:22.448Z,13.33
2018-01-06T06:54:50.348Z,13.83
2018-01-06T06:57:18.299Z,10.37
2018-01-06T06:59:46.158Z,10.63
2018-01-06T07:02:14.051Z,13.37
2018-01-06T07:04:41.940Z,16.93
2018-01-06T07:07:09.846Z,12.90
2018-01-06T07:09:37.744Z,14.77
2018-01-06T07:12:05.649Z,15.87
2018-01-06T07:14:33.491Z,19.77
2018-01-06T07:17:01.588Z,13.63
2018-01-06T07:19:29.519Z,28.93
2018-01-06T07:21:57.400Z,23.70
2018-01-06T07:24:25.254Z,15.03
2018-01-06T07:26:53.179Z,23.53
2018-01-06T07:29:21.052Z,17.73
2018-01-06T07:31:48.914Z,13.50
2018-01-06T07:34:16.792Z,23.87
2018-01-06T07:36:44.647Z,17.60
2018-01-06T07:39:12.475Z,18.43
2018-01-06T07:41:40.351Z,17.43
2018-01-06T07:44:09.252Z,19.70
2018-01-06T07:46:37.132Z,24.13
2018-01-06T07:49:05.956Z,13.70
2018-01-06T07:51:33.800Z,21.67
2018-01-06T07:54:01.693Z,21.03
2018-01-06T07:56:29.532Z,20.13
2018-01-06T07:58:57.428Z,13.40
2018-01-06T08:01:25.299Z,16.83
2018-01-06T08:03:53.183Z,14.90
2018-01-06T08:06:22.219Z,17.97
2018-01-06T08:08:50.190Z,21.60
2018-01-06T08:11:18.609Z,12.80
2018-01-06T08:13:46.632Z,19.37
2018-01-06T08:16:14.513Z,21.30
2018-01-06T08:18:42.407Z,12.60
2018-01-06T08:21:10.369Z,12.40
2018-01-06T08:23:38.320Z,19.60
2018-01-06T08:26:06.185Z,13.63
2018-01-06T08:28:34.117Z,15.77
2018-01-06T08:31:01.987Z,16.33
2018-01-06T08:33:29.842Z,13.83
2018-01-06T08:35:57.743Z,20.77
2018-01-06T08:38:25.583Z,26.10
2018-01-06T08:40:53.447Z,13.47
2018-01-06T08:43:21.351Z,11.93
2018-01-06T08:45:49.298Z,16.80
2018-01-06T08:48:17.186Z,19.43
2018-01-06T08:50:45.056Z,13.20
2018-01-06T08:53:12.904Z,18.07
2018-01-06T08:55:40.751Z,19.60
2018-01-06T08:58:08.661Z,13.10
2018-01-06T09:00:36.501Z,16.07
2018-01-06T09:03:04.368Z,18.00
2018-01-06T09:05:32.266Z,18.53
2018-01-06T09:08:00.148Z,13.00
2018-01-06T09:10:28.000Z,8.53
2018-01-06T09:12:55.888Z,15.43
2018-01-06T09:15:23.739Z,21.57
2018-01-06T09:17:51.564Z,21.57
2018-01-06T09:20:19.499Z,17.77
2018-01-06T09:22:47.362Z,17.07
2018-01-06T09:25:15.274Z,16.73
2018-01-06T09:27:43.159Z,14.50
2018-01-06T09:30:11.025Z,16.13
2018-01-06T09:32:39.966Z,14.90
2018-01-06T09:35:07.863Z,17.90
2018-01-06T09:37:35.696Z,14.30
2018-01-06T09:40:03.664Z,16.63
2018-01-06T09:42:31.535Z,13.37
2018-01-06T09:44:59.507Z,16.90
2018-01-06T09:47:27.428Z,14.57
2018-01-06T09:49:55.330Z,12.70
2018-01-06T09:52:23.232Z,12.00
2018-01-06T09:54:51.069Z,19.77
2018-01-06T09:57:19.039Z,12.10
2018-01-06T09:59:46.911Z,16.00
2018-01-06T10:02:14.831Z,14.30
2018-01-06T10:04:43.518Z,14.37
2018-01-06T10:07:11.414Z,15.80
2018-01-06T10:09:39.271Z,16.03
2018-01-06T10:12:07.130Z,14.77
2018-01-06T10:14:35.063Z,12.90
2018-01-06T10:17:02.910Z,16.93
2018-01-06T10:19:30.787Z,18.43
2018-01-06T10:21:58.662Z,11.43
2018-01-06T10:24:26.570Z,16.73
2018-01-06T10:26:54.644Z,14.90
2018-01-06T10:29:22.567Z,12.50
2018-01-06T10:31:50.417Z,19.17
2018-01-06T10:34:18.284Z,15.53
2018-01-06T10:36:46.841Z,13.77
2018-01-06T10:39:14.681Z,18.27
2018-01-06T10:41:42.793Z,12.37
2018-01-06T10:44:10.660Z,13.30
2018-01-06T10:46:38.511Z,13.40
2018-01-06T10:49:06.404Z,17.10
2018-01-06T10:51:35.056Z,14.63
2018-01-06T10:54:03.084Z,19.13
2018-01-06T10:56:30.959Z,15.70
2018-01-06T10:58:58.819Z,12.57
2018-01-06T11:01:32.731Z,11.33
2018-01-06T11:04:00.643Z,12.30
2018-01-06T11:06:28.569Z,14.70
2018-01-06T11:08:57.627Z,10.77
2018-01-06T11:11:25.557Z,9.63
2018-01-06T11:13:53.435Z,11.53
2018-01-06T11:16:22.379Z,15.47
2018-01-06T11:18:50.354Z,18.93
2018-01-06T11:21:18.277Z,18.47
2018-01-06T11:23:46.132Z,17.33
2018-01-06T11:26:14.108Z,19.00
2018-01-06T11:28:41.957Z,17.13
2018-01-06T11:31:10.844Z,17.93
2018-01-06T11:33:38.715Z,12.50
2018-01-06T11:36:06.582Z,13.00
2018-01-06T11:38:34.682Z,17.67
2018-01-06T11:44:04.113Z,17.63
2018-01-06T11:46:32.260Z,18.70
2018-01-06T11:49:02.302Z,13.93
2018-01-06T11:51:31.104Z,13.97
2018-01-06T11:54:01.985Z,26.60
2018-01-06T11:56:32.264Z,25.77
2018-01-06T11:59:00.432Z,22.63
2018-01-06T12:01:29.841Z,18.57
2018-01-06T12:04:01.683Z,26.40
2018-01-06T12:06:30.737Z,34.17
2018-01-06T12:09:03.048Z,14.93
2018-01-06T12:11:31.268Z,19.50
2018-01-06T12:13:59.155Z,24.50
2018-01-06T12:16:27.004Z,22.83
2018-01-06T12:18:56.791Z,27.70
2018-01-06T12:21:24.682Z,17.33
2018-01-06T12:23:52.537Z,14.10
2018-01-06T12:26:20.515Z,14.87
2018-01-06T12:28:48.365Z,14.63
2018-01-06T12:31:16.270Z,17.57
2018-01-06T12:33:44.926Z,15.47
2018-01-06T12:36:12.768Z,15.20
2018-01-06T12:38:40.644Z,16.03
2018-01-06T12:41:08.520Z,12.80
2018-01-06T12:43:36.738Z,16.60
2018-01-06T12:46:04.634Z,16.10
2018-01-06T12:48:32.531Z,13.83
2018-01-06T12:51:01.576Z,15.87
2018-01-06T12:53:29.433Z,17.40
2018-01-06T12:55:57.350Z,15.57
2018-01-06T12:58:25.193Z,15.60
2018-01-06T13:00:53.031Z,13.47
2018-01-06T13:03:20.938Z,14.77
2018-01-06T13:05:48.786Z,15.60
2018-01-06T13:08:16.649Z,15.73
2018-01-06T13:10:46.290Z,8.60
2018-01-06T13:13:14.180Z,9.73
2018-01-06T13:15:42.060Z,23.70
2018-01-06T13:18:09.983Z,15.67
2018-01-06T13:20:38.732Z,16.83
2018-01-06T13:23:06.696Z,14.90
2018-01-06T13:25:34.567Z,18.27
2018-01-06T13:28:02.451Z,13.63
2018-01-06T13:30:31.355Z,14.73
2018-01-06T13:32:59.331Z,26.70
2018-01-06T13:35:27.195Z,16.93
2018-01-06T13:37:55.062Z,8.43
2018-01-06T13:40:32.347Z,20.33
2018-01-06T13:43:00.304Z,16.00
2018-01-06T13:45:32.508Z,11.40
2018-01-06T13:48:01.525Z,23.10
2018-01-06T13:50:29.369Z,14.43
2018-01-06T13:52:58.129Z,18.03
2018-01-06T13:55:26.005Z,12.50
2018-01-06T13:57:54.081Z,14.87
2018-01-06T14:00:22.017Z,14.13
2018-01-06T14:02:49.900Z,17.63
2018-01-06T14:05:18.591Z,43.63
2018-01-06T14:07:46.655Z,13.97
2018-01-06T14:10:14.511Z,28.70
2018-01-06T14:12:42.424Z,23.90
2018-01-06T14:15:10.321Z,12.43
2018-01-06T14:17:39.071Z,15.87
2018-01-06T14:20:07.040Z,19.90
2018-01-06T14:22:36.080Z,15.70
2018-01-06T14:25:04.244Z,19.80
2018-01-06T14:27:32.349Z,27.13
2018-01-06T14:30:00.319Z,26.73
2018-01-06T14:32:32.801Z,24.73
2018-01-06T14:35:04.801Z,14.23
2018-01-06T14:37:34.591Z,15.27
2018-01-06T14:40:01.364Z,21.10
2018-01-06T14:42:29.336Z,13.87
2018-01-06T14:44:57.450Z,21.53
2018-01-06T14:47:25.404Z,16.53
2018-01-06T14:49:53.296Z,20.93
2018-01-06T14:52:21.203Z,14.77
2018-01-06T14:54:49.179Z,32.43
2018-01-06T14:57:17.138Z,18.20
2018-01-06T14:59:45.068Z,23.97
2018-01-06T15:02:13.226Z,20.93
2018-01-06T15:04:41.267Z,15.80
2018-01-06T15:07:09.289Z,15.20
2018-01-06T15:09:37.312Z,21.27
2018-01-06T15:12:05.267Z,20.67
2018-01-06T15:14:33.266Z,17.60
2018-01-06T15:17:01.351Z,16.33
2018-01-06T15:19:29.341Z,18.17
2018-01-06T15:21:57.254Z,26.90
2018-01-06T15:24:25.289Z,23.23
2018-01-06T15:26:53.309Z,17.17
2018-01-06T15:29:21.254Z,22.33
2018-01-06T15:31:50.824Z,15.27
2018-01-06T15:34:18.974Z,26.67
2018-01-06T15:36:47.064Z,16.83
2018-01-06T15:39:15.042Z,21.33
2018-01-06T15:41:44.791Z,17.70
2018-01-06T15:44:12.710Z,27.23
2018-01-06T15:46:40.629Z,32.23
2018-01-06T15:49:08.558Z,18.47
2018-01-06T15:51:36.496Z,21.50
2018-01-06T15:54:04.583Z,19.70
2018-01-06T15:56:32.733Z,20.67
2018-01-06T15:59:00.626Z,19.67
2018-01-06T16:01:30.915Z,15.93
2018-01-06T16:03:58.805Z,17.00
2018-01-06T16:06:26.732Z,18.60
2018-01-06T16:08:54.644Z,14.43
2018-01-06T16:11:22.498Z,25.57
2018-01-06T16:13:50.418Z,29.37
2018-01-06T16:16:18.374Z,19.27
2018-01-06T16:18:46.236Z,8.73
2018-01-06T16:21:14.070Z,21.80
2018-01-06T16:23:41.974Z,23.83
2018-01-06T16:26:09.816Z,23.03
2018-01-06T16:28:38.049Z,20.93
2018-01-06T16:31:06.023Z,19.87
2018-01-06T16:33:33.893Z,20.83
2018-01-06T16:36:02.764Z,23.10
2018-01-06T16:38:30.626Z,17.97
2018-01-06T16:40:58.460Z,20.57
2018-01-06T16:43:26.314Z,24.53
2018-01-06T16:45:54.212Z,15.03
2018-01-06T16:48:22.200Z,23.33
2018-01-06T16:50:50.300Z,17.40
2018-01-06T17:23:16.123Z,18.13
2018-01-06T17:25:44.064Z,20.30
2018-01-06T17:28:12.146Z,26.13
2018-01-06T17:30:40.041Z,31.90
2018-01-06T17:33:08.004Z,34.80
2018-01-06T17:35:35.873Z,57.03
2018-01-06T17:38:03.835Z,28.50
2018-01-06T17:40:31.783Z,25.37
2018-01-06T17:43:03.910Z,21.37
2018-01-06T17:45:31.848Z,20.33
2018-01-06T17:47:59.697Z,26.60
2018-01-06T17:50:28.030Z,17.87
2018-01-06T17:52:55.918Z,29.83
2018-01-06T17:55:23.798Z,17.33
2018-01-06T17:57:52.747Z,22.17
2018-01-06T18:00:20.754Z,22.07
2018-01-06T18:02:48.789Z,23.10
2018-01-06T18:05:16.693Z,22.50
2018-01-06T18:07:44.555Z,25.13
2018-01-06T18:10:12.485Z,34.93
2018-01-06T18:12:40.503Z,26.67
2018-01-06T18:15:08.576Z,32.97
2018-01-06T18:17:36.456Z,21.53
2018-01-06T18:20:04.379Z,28.27
2018-01-06T18:22:32.228Z,29.83
2018-01-06T18:25:00.103Z,24.60
2018-01-06T18:27:28.030Z,24.17
2018-01-06T18:29:55.893Z,25.50
2018-01-06T18:32:23.731Z,27.93
2018-01-06T18:34:51.663Z,17.57
2018-01-06T18:37:20.249Z,26.80
2018-01-06T18:39:48.099Z,23.83
2018-01-06T18:42:16.744Z,23.43
2018-01-06T18:44:44.609Z,26.13
2018-01-06T18:47:12.499Z,30.90
2018-01-06T18:49:40.547Z,40.53
2018-01-06T18:52:08.418Z,38.43
2018-01-06T18:54:36.274Z,33.23
2018-01-06T18:57:04.178Z,41.03
2018-01-06T18:59:32.119Z,44.80
2018-01-06T19:01:59.936Z,41.23
2018-01-06T19:04:27.865Z,34.80
2018-01-06T19:06:55.752Z,43.93
2018-01-06T19:09:24.337Z,52.47
2018-01-06T19:11:52.526Z,40.30
2018-01-06T19:14:20.390Z,47.10
2018-01-06T19:16:48.312Z,46.40
2018-01-06T19:19:16.312Z,37.80
2018-01-06T19:21:44.228Z,40.33
2018-01-06T19:24:12.295Z,39.33
2018-01-06T19:26:40.266Z,35.17
2018-01-06T19:29:08.181Z,36.27
2018-01-06T19:31:36.098Z,30.20
2018-01-06T19:34:04.108Z,35.87
2018-01-06T19:36:32.124Z,39.23
2018-01-06T19:39:00.071Z,41.63
2018-01-06T19:41:27.932Z,44.37
2018-01-06T19:43:55.819Z,44.60
2018-01-06T19:46:23.712Z,45.07
2018-01-06T19:48:51.582Z,47.87
2018-01-06T19:51:19.436Z,46.20
2018-01-06T19:53:47.436Z,43.70
2018-01-06T19:56:15.354Z,45.13
2018-01-06T19:58:43.223Z,45.50
2018-01-06T20:01:11.449Z,51.30
2018-01-06T20:03:39.335Z,40.60
2018-01-06T20:06:08.000Z,40.83
2018-01-06T20:08:35.935Z,56.20
2018-01-06T20:11:03.808Z,39.40
2018-01-06T20:13:31.715Z,40.13
2018-01-06T20:15:59.594Z,36.00
2018-01-06T20:18:27.588Z,46.87
2018-01-06T20:20:55.657Z,50.53
2018-01-06T20:23:23.512Z,39.87
2018-01-06T20:25:51.421Z,43.93
2018-01-06T20:28:19.434Z,46.50
2018-01-06T20:30:47.433Z,42.63
2018-01-06T20:33:15.312Z,45.80
2018-01-06T20:35:43.223Z,36.47
2018-01-06T20:38:11.095Z,38.57
2018-01-06T20:40:39.002Z,38.83
2018-01-06T20:43:06.861Z,36.00
2018-01-06T20:45:34.766Z,39.60
2018-01-06T20:48:02.686Z,42.47
2018-01-06T20:50:30.669Z,40.03
2018-01-06T20:52:58.539Z,35.23
2018-01-06T20:55:26.389Z,39.10
2018-01-06T20:57:54.270Z,35.43
2018-01-06T21:00:22.224Z,34.13
2018-01-06T21:02:50.064Z,38.80
2018-01-06T21:05:17.995Z,39.97
2018-01-06T21:07:45.921Z,36.93
2018-01-06T21:10:13.755Z,43.27
2018-01-06T21:12:41.633Z,40.37
2018-01-06T21:15:09.779Z,34.90
2018-01-06T21:17:37.679Z,28.03
2018-01-06T21:20:05.563Z,34.87
2018-01-06T21:22:33.496Z,37.10
2018-01-06T21:25:01.408Z,41.17
2018-01-06T21:27:29.292Z,30.93
2018-01-06T21:29:57.140Z,27.67
2018-01-06T21:32:25.029Z,32.50
2018-01-06T21:34:52.953Z,29.13
2018-01-06T21:37:20.867Z,30.57
2018-01-06T21:39:48.729Z,35.77
2018-01-06T21:42:16.691Z,30.13
2018-01-06T21:44:44.569Z,29.93
2018-01-06T21:47:12.550Z,34.57
2018-01-06T21:49:40.553Z,30.17
2018-01-06T21:52:08.398Z,24.93
2018-01-06T21:54:36.280Z,29.53
2018-01-06T21:57:04.200Z,28.83
2018-01-06T21:59:32.056Z,18.27
2018-01-06T22:01:59.887Z,30.67
2018-01-06T22:04:27.809Z,27.10
2018-01-06T22:06:55.675Z,30.77
2018-01-06T22:09:23.568Z,22.70
2018-01-06T22:11:51.436Z,30.83
2018-01-06T22:14:19.299Z,24.30
2018-01-06T22:16:47.139Z,24.20
2018-01-06T22:19:15.061Z,25.93
2018-01-06T22:21:42.934Z,18.67
2018-01-06T22:24:11.096Z,31.87
2018-01-06T22:26:39.220Z,21.00
2018-01-06T22:29:07.154Z,20.90
2018-01-06T22:31:35.202Z,21.60
2018-01-06T22:34:03.142Z,19.53
2018-01-06T22:36:30.993Z,23.03
2018-01-06T22:38:59.062Z,24.10
2018-01-06T22:41:27.071Z,18.53
2018-01-06T22:43:54.911Z,21.90
2018-01-06T22:46:22.762Z,19.77
2018-01-06T22:48:50.629Z,18.10
2018-01-06T22:51:18.519Z,17.23
2018-01-06T22:53:46.356Z,19.30
2018-01-06T22:56:14.270Z,18.03
2018-01-06T22:58:42.139Z,18.03
2018-01-06T23:01:10.003Z,14.70
2018-01-06T23:03:37.944Z,16.13
2018-01-06T23:06:05.837Z,14.90
2018-01-06T23:08:33.781Z,15.23
2018-01-06T23:11:02.374Z,14.90
2018-01-06T23:13:30.227Z,19.33
2018-01-06T23:15:58.055Z,14.23
2018-01-06T23:18:26.011Z,15.13
2018-01-06T23:20:53.877Z,15.63
2018-01-06T23:23:21.733Z,11.67
2018-01-06T23:25:49.685Z,13.23
2018-01-06T23:28:17.578Z,10.47
2018-01-06T23:30:45.522Z,8.73
2018-01-06T23:33:13.457Z,7.63
2018-01-06T23:35:41.431Z,9.40
2018-01-06T23:38:09.338Z,9.50
2018-01-06T23:40:37.219Z,13.03
2018-01-06T23:43:05.066Z,12.53
2018-01-06T23:45:33.062Z,11.97
2018-01-06T23:48:00.937Z,12.70
2018-01-06T23:50:28.771Z,9.50
2018-01-06T23:52:56.699Z,11.33
2018-01-06T23:55:24.561Z,12.87
2018-01-06T23:57:52.412Z,11.73
